sensor_id;sensor_type;location;lat;lon;timestamp;P1;durP1;ratioP1;P2;durP2;ratioP2
27491;SDS011;14927;51.210;6.838;2023-07-09T00:00:15;7.03;;;4.57;;
27491;SDS011;14927;51.210;6.838;2023-07-09T00:03:02;8.45;;;4.75;;
27491;SDS011;14927;51.210;6.838;2023-07-09T00:05:48;10.15;;;4.47;;
27491;SDS011;14927;51.210;6.838;2023-07-09T00:08:36;5.25;;;4.40;;
27491;SDS011;14927;51.210;6.838;2023-07-09T00:11:27;8.85;;;4.40;;
27491;SDS011;14927;51.210;6.838;2023-07-09T00:14:16;8.20;;;4.93;;
27491;SDS011;14927;51.210;6.838;2023-07-09T00:17:01;10.13;;;4.40;;
27491;SDS011;14927;51.210;6.838;2023-07-09T00:19:46;6.45;;;4.32;;
27491;SDS011;14927;51.210;6.838;2023-07-09T00:22:31;9.35;;;4.88;;
27491;SDS011;14927;51.210;6.838;2023-07-09T00:25:15;6.88;;;4.35;;
27491;SDS011;14927;51.210;6.838;2023-07-09T00:28:01;6.60;;;4.20;;
27491;SDS011;14927;51.210;6.838;2023-07-09T00:30:47;6.28;;;4.40;;
27491;SDS011;14927;51.210;6.838;2023-07-09T00:33:32;8.38;;;5.05;;
27491;SDS011;14927;51.210;6.838;2023-07-09T00:36:21;8.40;;;4.32;;
27491;SDS011;14927;51.210;6.838;2023-07-09T00:39:17;8.65;;;4.75;;
27491;SDS011;14927;51.210;6.838;2023-07-09T00:42:04;9.25;;;4.38;;
27491;SDS011;14927;51.210;6.838;2023-07-09T00:44:51;6.35;;;3.80;;
27491;SDS011;14927;51.210;6.838;2023-07-09T00:47:40;7.75;;;4.75;;
27491;SDS011;14927;51.210;6.838;2023-07-09T00:53:31;6.45;;;4.55;;
27491;SDS011;14927;51.210;6.838;2023-07-09T00:56:17;7.68;;;4.55;;
27491;SDS011;14927;51.210;6.838;2023-07-09T00:59:25;6.65;;;4.35;;
27491;SDS011;14927;51.210;6.838;2023-07-09T01:02:13;6.57;;;4.50;;
27491;SDS011;14927;51.210;6.838;2023-07-09T01:04:59;6.90;;;4.55;;
27491;SDS011;14927;51.210;6.838;2023-07-09T01:07:46;6.35;;;3.92;;
27491;SDS011;14927;51.210;6.838;2023-07-09T01:10:31;5.68;;;4.13;;
27491;SDS011;14927;51.210;6.838;2023-07-09T01:13:16;7.70;;;4.53;;
27491;SDS011;14927;51.210;6.838;2023-07-09T01:16:03;9.52;;;3.92;;
27491;SDS011;14927;51.210;6.838;2023-07-09T01:18:48;5.57;;;4.43;;
27491;SDS011;14927;51.210;6.838;2023-07-09T01:21:34;6.82;;;4.40;;
27491;SDS011;14927;51.210;6.838;2023-07-09T01:27:46;5.93;;;4.13;;
27491;SDS011;14927;51.210;6.838;2023-07-09T01:30:37;7.10;;;4.22;;
27491;SDS011;14927;51.210;6.838;2023-07-09T01:33:23;6.05;;;4.03;;
27491;SDS011;14927;51.210;6.838;2023-07-09T01:36:08;8.52;;;4.18;;
27491;SDS011;14927;51.210;6.838;2023-07-09T01:38:57;6.68;;;4.13;;
27491;SDS011;14927;51.210;6.838;2023-07-09T01:41:41;5.45;;;4.20;;
27491;SDS011;14927;51.210;6.838;2023-07-09T01:44:31;5.63;;;3.83;;
27491;SDS011;14927;51.210;6.838;2023-07-09T01:47:16;6.82;;;4.25;;
27491;SDS011;14927;51.210;6.838;2023-07-09T01:50:01;7.45;;;4.07;;
27491;SDS011;14927;51.210;6.838;2023-07-09T01:52:47;6.28;;;3.92;;
27491;SDS011;14927;51.210;6.838;2023-07-09T01:55:33;8.43;;;4.18;;
27491;SDS011;14927;51.210;6.838;2023-07-09T01:58:18;5.72;;;4.40;;
27491;SDS011;14927;51.210;6.838;2023-07-09T02:01:03;5.47;;;4.22;;
27491;SDS011;14927;51.210;6.838;2023-07-09T02:03:48;6.05;;;4.40;;
27491;SDS011;14927;51.210;6.838;2023-07-09T02:06:32;9.45;;;4.70;;
27491;SDS011;14927;51.210;6.838;2023-07-09T02:09:17;5.53;;;4.15;;
27491;SDS011;14927;51.210;6.838;2023-07-09T02:12:02;6.70;;;4.15;;
27491;SDS011;14927;51.210;6.838;2023-07-09T02:14:48;7.57;;;4.70;;
27491;SDS011;14927;51.210;6.838;2023-07-09T02:17:33;7.20;;;4.40;;
27491;SDS011;14927;51.210;6.838;2023-07-09T02:20:17;6.28;;;4.28;;
27491;SDS011;14927;51.210;6.838;2023-07-09T02:23:02;6.72;;;4.22;;
27491;SDS011;14927;51.210;6.838;2023-07-09T02:25:48;6.97;;;4.38;;
27491;SDS011;14927;51.210;6.838;2023-07-09T02:28:36;5.97;;;4.55;;
27491;SDS011;14927;51.210;6.838;2023-07-09T02:31:20;5.65;;;3.92;;
27491;SDS011;14927;51.210;6.838;2023-07-09T02:34:08;10.00;;;4.85;;
27491;SDS011;14927;51.210;6.838;2023-07-09T02:36:53;9.23;;;4.80;;
27491;SDS011;14927;51.210;6.838;2023-07-09T02:39:39;6.75;;;4.05;;
27491;SDS011;14927;51.210;6.838;2023-07-09T02:42:24;6.70;;;4.28;;
27491;SDS011;14927;51.210;6.838;2023-07-09T02:45:08;9.68;;;3.95;;
27491;SDS011;14927;51.210;6.838;2023-07-09T02:47:54;6.43;;;4.25;;
27491;SDS011;14927;51.210;6.838;2023-07-09T02:50:39;9.23;;;4.90;;
27491;SDS011;14927;51.210;6.838;2023-07-09T02:53:24;8.30;;;4.65;;
27491;SDS011;14927;51.210;6.838;2023-07-09T02:56:09;7.05;;;4.18;;
27491;SDS011;14927;51.210;6.838;2023-07-09T02:58:54;9.40;;;4.88;;
27491;SDS011;14927;51.210;6.838;2023-07-09T03:01:39;6.13;;;4.30;;
27491;SDS011;14927;51.210;6.838;2023-07-09T03:04:24;7.38;;;4.07;;
27491;SDS011;14927;51.210;6.838;2023-07-09T03:07:08;5.53;;;4.05;;
27491;SDS011;14927;51.210;6.838;2023-07-09T03:09:53;8.00;;;4.30;;
27491;SDS011;14927;51.210;6.838;2023-07-09T03:12:37;7.70;;;4.55;;
27491;SDS011;14927;51.210;6.838;2023-07-09T03:15:22;8.77;;;4.43;;
27491;SDS011;14927;51.210;6.838;2023-07-09T03:18:07;8.40;;;4.55;;
27491;SDS011;14927;51.210;6.838;2023-07-09T03:20:52;10.93;;;4.65;;
27491;SDS011;14927;51.210;6.838;2023-07-09T03:23:36;6.85;;;4.68;;
27491;SDS011;14927;51.210;6.838;2023-07-09T03:26:21;6.63;;;4.38;;
27491;SDS011;14927;51.210;6.838;2023-07-09T03:29:06;6.57;;;4.25;;
27491;SDS011;14927;51.210;6.838;2023-07-09T03:31:51;8.07;;;4.55;;
27491;SDS011;14927;51.210;6.838;2023-07-09T03:34:35;9.80;;;4.50;;
27491;SDS011;14927;51.210;6.838;2023-07-09T03:37:20;6.70;;;4.32;;
27491;SDS011;14927;51.210;6.838;2023-07-09T03:40:05;10.68;;;4.55;;
27491;SDS011;14927;51.210;6.838;2023-07-09T03:42:52;9.15;;;4.47;;
27491;SDS011;14927;51.210;6.838;2023-07-09T03:45:37;6.88;;;4.75;;
27491;SDS011;14927;51.210;6.838;2023-07-09T03:48:22;7.88;;;4.70;;
27491;SDS011;14927;51.210;6.838;2023-07-09T03:51:07;10.15;;;4.35;;
27491;SDS011;14927;51.210;6.838;2023-07-09T03:53:52;6.05;;;4.30;;
27491;SDS011;14927;51.210;6.838;2023-07-09T03:56:36;5.32;;;4.20;;
27491;SDS011;14927;51.210;6.838;2023-07-09T03:59:21;6.40;;;4.78;;
27491;SDS011;14927;51.210;6.838;2023-07-09T04:02:09;8.13;;;4.40;;
27491;SDS011;14927;51.210;6.838;2023-07-09T04:04:56;7.13;;;4.70;;
27491;SDS011;14927;51.210;6.838;2023-07-09T04:07:44;6.75;;;4.55;;
27491;SDS011;14927;51.210;6.838;2023-07-09T04:10:28;7.85;;;4.03;;
27491;SDS011;14927;51.210;6.838;2023-07-09T04:13:13;6.30;;;4.45;;
27491;SDS011;14927;51.210;6.838;2023-07-09T04:15:58;6.40;;;4.38;;
27491;SDS011;14927;51.210;6.838;2023-07-09T04:18:43;7.22;;;4.88;;
27491;SDS011;14927;51.210;6.838;2023-07-09T04:21:27;8.93;;;5.13;;
27491;SDS011;14927;51.210;6.838;2023-07-09T04:24:13;7.45;;;4.57;;
27491;SDS011;14927;51.210;6.838;2023-07-09T04:27:00;5.93;;;4.30;;
27491;SDS011;14927;51.210;6.838;2023-07-09T04:29:46;5.20;;;4.10;;
27491;SDS011;14927;51.210;6.838;2023-07-09T04:32:31;9.07;;;4.63;;
27491;SDS011;14927;51.210;6.838;2023-07-09T04:35:16;9.75;;;4.15;;
27491;SDS011;14927;51.210;6.838;2023-07-09T04:38:01;6.72;;;4.25;;
27491;SDS011;14927;51.210;6.838;2023-07-09T04:40:46;11.80;;;5.13;;
27491;SDS011;14927;51.210;6.838;2023-07-09T04:43:30;5.53;;;4.15;;
27491;SDS011;14927;51.210;6.838;2023-07-09T04:46:15;6.78;;;4.38;;
27491;SDS011;14927;51.210;6.838;2023-07-09T04:49:00;9.32;;;4.25;;
27491;SDS011;14927;51.210;6.838;2023-07-09T04:51:44;7.20;;;4.18;;
27491;SDS011;14927;51.210;6.838;2023-07-09T04:54:29;7.30;;;4.53;;
27491;SDS011;14927;51.210;6.838;2023-07-09T04:57:14;6.50;;;4.25;;
27491;SDS011;14927;51.210;6.838;2023-07-09T04:59:58;8.73;;;4.40;;
27491;SDS011;14927;51.210;6.838;2023-07-09T05:02:43;6.47;;;4.07;;
27491;SDS011;14927;51.210;6.838;2023-07-09T05:05:28;8.15;;;4.70;;
27491;SDS011;14927;51.210;6.838;2023-07-09T05:08:13;8.48;;;4.50;;
27491;SDS011;14927;51.210;6.838;2023-07-09T05:10:58;7.38;;;4.25;;
27491;SDS011;14927;51.210;6.838;2023-07-09T05:13:43;6.40;;;4.47;;
27491;SDS011;14927;51.210;6.838;2023-07-09T05:16:28;7.55;;;4.72;;
27491;SDS011;14927;51.210;6.838;2023-07-09T05:19:13;8.75;;;4.10;;
27491;SDS011;14927;51.210;6.838;2023-07-09T05:21:58;7.78;;;4.40;;
27491;SDS011;14927;51.210;6.838;2023-07-09T05:24:43;6.90;;;3.95;;
27491;SDS011;14927;51.210;6.838;2023-07-09T05:27:27;5.07;;;4.03;;
27491;SDS011;14927;51.210;6.838;2023-07-09T05:30:12;7.30;;;4.35;;
27491;SDS011;14927;51.210;6.838;2023-07-09T05:32:56;6.57;;;4.22;;
27491;SDS011;14927;51.210;6.838;2023-07-09T05:35:42;6.68;;;4.05;;
27491;SDS011;14927;51.210;6.838;2023-07-09T05:38:27;8.13;;;4.90;;
27491;SDS011;14927;51.210;6.838;2023-07-09T05:41:11;6.97;;;4.40;;
27491;SDS011;14927;51.210;6.838;2023-07-09T05:44:00;9.60;;;4.63;;
27491;SDS011;14927;51.210;6.838;2023-07-09T05:46:45;9.15;;;4.78;;
27491;SDS011;14927;51.210;6.838;2023-07-09T05:49:30;7.90;;;4.65;;
27491;SDS011;14927;51.210;6.838;2023-07-09T05:52:15;9.95;;;4.35;;
27491;SDS011;14927;51.210;6.838;2023-07-09T05:57:49;8.60;;;4.47;;
27491;SDS011;14927;51.210;6.838;2023-07-09T06:00:34;7.60;;;3.85;;
27491;SDS011;14927;51.210;6.838;2023-07-09T06:03:21;5.28;;;3.83;;
27491;SDS011;14927;51.210;6.838;2023-07-09T06:06:08;7.65;;;4.22;;
27491;SDS011;14927;51.210;6.838;2023-07-09T06:08:53;13.40;;;4.80;;
27491;SDS011;14927;51.210;6.838;2023-07-09T06:11:38;8.35;;;4.85;;
27491;SDS011;14927;51.210;6.838;2023-07-09T06:14:22;9.98;;;5.45;;
27491;SDS011;14927;51.210;6.838;2023-07-09T06:17:07;6.80;;;4.70;;
27491;SDS011;14927;51.210;6.838;2023-07-09T06:19:52;6.65;;;4.35;;
27491;SDS011;14927;51.210;6.838;2023-07-09T06:22:37;6.10;;;3.85;;
27491;SDS011;14927;51.210;6.838;2023-07-09T06:25:21;8.77;;;5.22;;
27491;SDS011;14927;51.210;6.838;2023-07-09T06:28:06;7.88;;;5.00;;
27491;SDS011;14927;51.210;6.838;2023-07-09T06:30:50;5.47;;;3.83;;
27491;SDS011;14927;51.210;6.838;2023-07-09T06:33:35;6.95;;;4.50;;
27491;SDS011;14927;51.210;6.838;2023-07-09T06:36:20;6.60;;;3.88;;
27491;SDS011;14927;51.210;6.838;2023-07-09T06:39:04;6.18;;;4.50;;
27491;SDS011;14927;51.210;6.838;2023-07-09T06:41:49;7.78;;;4.20;;
27491;SDS011;14927;51.210;6.838;2023-07-09T06:44:33;7.72;;;4.47;;
27491;SDS011;14927;51.210;6.838;2023-07-09T06:47:18;9.43;;;5.53;;
27491;SDS011;14927;51.210;6.838;2023-07-09T06:50:02;9.73;;;4.43;;
27491;SDS011;14927;51.210;6.838;2023-07-09T06:52:48;6.57;;;4.70;;
27491;SDS011;14927;51.210;6.838;2023-07-09T06:55:33;7.38;;;3.85;;
27491;SDS011;14927;51.210;6.838;2023-07-09T06:58:17;6.05;;;4.25;;
27491;SDS011;14927;51.210;6.838;2023-07-09T07:01:03;5.63;;;4.10;;
27491;SDS011;14927;51.210;6.838;2023-07-09T07:03:48;6.32;;;3.72;;
27491;SDS011;14927;51.210;6.838;2023-07-09T07:06:33;5.15;;;3.55;;
27491;SDS011;14927;51.210;6.838;2023-07-09T07:09:18;6.72;;;4.30;;
27491;SDS011;14927;51.210;6.838;2023-07-09T07:12:02;8.98;;;3.58;;
27491;SDS011;14927;51.210;6.838;2023-07-09T07:14:47;7.32;;;3.72;;
27491;SDS011;14927;51.210;6.838;2023-07-09T07:17:32;6.22;;;3.83;;
27491;SDS011;14927;51.210;6.838;2023-07-09T07:20:16;6.32;;;4.00;;
27491;SDS011;14927;51.210;6.838;2023-07-09T07:23:02;6.85;;;4.43;;
27491;SDS011;14927;51.210;6.838;2023-07-09T07:25:47;5.57;;;4.13;;
27491;SDS011;14927;51.210;6.838;2023-07-09T07:28:33;7.85;;;4.90;;
27491;SDS011;14927;51.210;6.838;2023-07-09T07:31:20;6.83;;;4.30;;
27491;SDS011;14927;51.210;6.838;2023-07-09T07:34:05;6.45;;;4.07;;
27491;SDS011;14927;51.210;6.838;2023-07-09T07:36:50;8.63;;;4.43;;
27491;SDS011;14927;51.210;6.838;2023-07-09T07:39:34;6.78;;;3.75;;
27491;SDS011;14927;51.210;6.838;2023-07-09T07:42:19;7.18;;;3.97;;
27491;SDS011;14927;51.210;6.838;2023-07-09T07:45:04;6.78;;;4.35;;
27491;SDS011;14927;51.210;6.838;2023-07-09T07:47:50;7.22;;;4.22;;
27491;SDS011;14927;51.210;6.838;2023-07-09T07:50:36;5.55;;;3.70;;
27491;SDS011;14927;51.210;6.838;2023-07-09T07:53:21;8.90;;;4.82;;
27491;SDS011;14927;51.210;6.838;2023-07-09T07:56:09;10.43;;;4.78;;
27491;SDS011;14927;51.210;6.838;2023-07-09T07:58:54;8.75;;;4.18;;
27491;SDS011;14927;51.210;6.838;2023-07-09T08:01:39;9.27;;;4.57;;
27491;SDS011;14927;51.210;6.838;2023-07-09T08:04:24;7.55;;;4.38;;
27491;SDS011;14927;51.210;6.838;2023-07-09T08:07:09;5.95;;;4.22;;
27491;SDS011;14927;51.210;6.838;2023-07-09T08:09:55;5.32;;;4.15;;
27491;SDS011;14927;51.210;6.838;2023-07-09T08:12:39;5.57;;;4.18;;
27491;SDS011;14927;51.210;6.838;2023-07-09T08:15:24;8.35;;;4.38;;
27491;SDS011;14927;51.210;6.838;2023-07-09T08:18:10;10.55;;;4.47;;
27491;SDS011;14927;51.210;6.838;2023-07-09T08:20:54;10.00;;;4.20;;
27491;SDS011;14927;51.210;6.838;2023-07-09T08:23:39;7.45;;;3.45;;
27491;SDS011;14927;51.210;6.838;2023-07-09T08:26:24;7.05;;;3.95;;
27491;SDS011;14927;51.210;6.838;2023-07-09T08:29:08;6.75;;;4.07;;
27491;SDS011;14927;51.210;6.838;2023-07-09T08:31:53;5.15;;;3.75;;
27491;SDS011;14927;51.210;6.838;2023-07-09T08:34:38;6.70;;;4.28;;
27491;SDS011;14927;51.210;6.838;2023-07-09T08:37:27;6.15;;;4.07;;
27491;SDS011;14927;51.210;6.838;2023-07-09T08:40:16;7.10;;;4.13;;
27491;SDS011;14927;51.210;6.838;2023-07-09T08:43:10;6.43;;;3.88;;
27491;SDS011;14927;51.210;6.838;2023-07-09T08:46:33;5.50;;;4.20;;
27491;SDS011;14927;51.210;6.838;2023-07-09T08:49:47;7.28;;;3.92;;
27491;SDS011;14927;51.210;6.838;2023-07-09T08:52:41;6.90;;;4.50;;
27491;SDS011;14927;51.210;6.838;2023-07-09T08:55:29;6.68;;;4.03;;
27491;SDS011;14927;51.210;6.838;2023-07-09T08:58:25;4.85;;;3.70;;
27491;SDS011;14927;51.210;6.838;2023-07-09T09:01:20;8.43;;;3.97;;
27491;SDS011;14927;51.210;6.838;2023-07-09T09:04:18;4.57;;;3.67;;
27491;SDS011;14927;51.210;6.838;2023-07-09T09:07:18;6.40;;;4.03;;
27491;SDS011;14927;51.210;6.838;2023-07-09T09:10:46;5.38;;;3.90;;
27491;SDS011;14927;51.210;6.838;2023-07-09T09:13:44;5.15;;;3.30;;
27491;SDS011;14927;51.210;6.838;2023-07-09T09:16:41;6.40;;;3.80;;
27491;SDS011;14927;51.210;6.838;2023-07-09T09:20:06;6.93;;;3.83;;
27491;SDS011;14927;51.210;6.838;2023-07-09T09:23:22;7.65;;;3.80;;
27491;SDS011;14927;51.210;6.838;2023-07-09T09:26:14;5.50;;;3.05;;
27491;SDS011;14927;51.210;6.838;2023-07-09T09:29:13;9.88;;;3.58;;
27491;SDS011;14927;51.210;6.838;2023-07-09T09:31:59;5.97;;;3.88;;
27491;SDS011;14927;51.210;6.838;2023-07-09T09:35:16;11.50;;;3.72;;
27491;SDS011;14927;51.210;6.838;2023-07-09T09:38:17;6.55;;;4.00;;
27491;SDS011;14927;51.210;6.838;2023-07-09T09:41:12;8.93;;;4.05;;
27491;SDS011;14927;51.210;6.838;2023-07-09T09:44:05;5.20;;;3.58;;
27491;SDS011;14927;51.210;6.838;2023-07-09T09:46:55;9.10;;;3.58;;
27491;SDS011;14927;51.210;6.838;2023-07-09T09:49:42;6.55;;;3.58;;
27491;SDS011;14927;51.210;6.838;2023-07-09T09:52:29;5.07;;;3.42;;
27491;SDS011;14927;51.210;6.838;2023-07-09T09:55:25;7.47;;;3.75;;
27491;SDS011;14927;51.210;6.838;2023-07-09T09:58:14;6.55;;;3.40;;
27491;SDS011;14927;51.210;6.838;2023-07-09T10:01:16;4.93;;;3.53;;
27491;SDS011;14927;51.210;6.838;2023-07-09T10:04:02;7.60;;;3.65;;
27491;SDS011;14927;51.210;6.838;2023-07-09T10:06:50;6.05;;;3.25;;
27491;SDS011;14927;51.210;6.838;2023-07-09T10:12:50;6.45;;;3.60;;
27491;SDS011;14927;51.210;6.838;2023-07-09T10:15:42;7.93;;;4.20;;
27491;SDS011;14927;51.210;6.838;2023-07-09T10:18:35;8.88;;;3.85;;
27491;SDS011;14927;51.210;6.838;2023-07-09T10:21:44;6.65;;;3.42;;
27491;SDS011;14927;51.210;6.838;2023-07-09T10:25:01;7.70;;;3.60;;
27491;SDS011;14927;51.210;6.838;2023-07-09T10:41:39;3.95;;;3.13;;
27491;SDS011;14927;51.210;6.838;2023-07-09T10:44:31;9.68;;;3.00;;
27491;SDS011;14927;51.210;6.838;2023-07-09T10:47:43;7.47;;;3.53;;
27491;SDS011;14927;51.210;6.838;2023-07-09T10:50:31;7.88;;;3.63;;
27491;SDS011;14927;51.210;6.838;2023-07-09T10:53:36;6.28;;;3.72;;
27491;SDS011;14927;51.210;6.838;2023-07-09T10:56:36;4.88;;;3.53;;
27491;SDS011;14927;51.210;6.838;2023-07-09T10:59:47;6.78;;;3.13;;
27491;SDS011;14927;51.210;6.838;2023-07-09T11:02:50;5.47;;;3.38;;
27491;SDS011;14927;51.210;6.838;2023-07-09T11:09:46;5.03;;;2.47;;
27491;SDS011;14927;51.210;6.838;2023-07-09T11:17:59;4.88;;;3.33;;
27491;SDS011;14927;51.210;6.838;2023-07-09T11:21:22;8.00;;;3.22;;
27491;SDS011;14927;51.210;6.838;2023-07-09T11:24:24;7.35;;;3.47;;
27491;SDS011;14927;51.210;6.838;2023-07-09T11:27:30;10.60;;;3.45;;
27491;SDS011;14927;51.210;6.838;2023-07-09T11:33:46;5.40;;;3.10;;
27491;SDS011;14927;51.210;6.838;2023-07-09T11:36:31;5.83;;;3.53;;
27491;SDS011;14927;51.210;6.838;2023-07-09T11:45:41;6.63;;;3.13;;
27491;SDS011;14927;51.210;6.838;2023-07-09T11:48:29;6.00;;;3.03;;
27491;SDS011;14927;51.210;6.838;2023-07-09T11:52:03;7.93;;;3.40;;
27491;SDS011;14927;51.210;6.838;2023-07-09T11:54:36;4.60;;;3.42;;
27491;SDS011;14927;51.210;6.838;2023-07-09T11:57:23;4.97;;;3.33;;
27491;SDS011;14927;51.210;6.838;2023-07-09T12:00:14;3.92;;;3.15;;
27491;SDS011;14927;51.210;6.838;2023-07-09T12:03:00;5.43;;;3.25;;
27491;SDS011;14927;51.210;6.838;2023-07-09T12:09:18;4.00;;;3.00;;
27491;SDS011;14927;51.210;6.838;2023-07-09T12:12:15;5.10;;;3.38;;
27491;SDS011;14927;51.210;6.838;2023-07-09T12:15:27;6.78;;;3.45;;
27491;SDS011;14927;51.210;6.838;2023-07-09T12:18:18;8.95;;;3.60;;
27491;SDS011;14927;51.210;6.838;2023-07-09T12:21:04;6.10;;;3.15;;
27491;SDS011;14927;51.210;6.838;2023-07-09T12:23:54;4.20;;;2.88;;
27491;SDS011;14927;51.210;6.838;2023-07-09T12:26:42;5.93;;;3.08;;
27491;SDS011;14927;51.210;6.838;2023-07-09T12:29:27;5.70;;;2.85;;
27491;SDS011;14927;51.210;6.838;2023-07-09T12:32:15;3.75;;;3.03;;
27491;SDS011;14927;51.210;6.838;2023-07-09T12:35:01;4.35;;;3.03;;
27491;SDS011;14927;51.210;6.838;2023-07-09T12:37:46;4.28;;;2.78;;
27491;SDS011;14927;51.210;6.838;2023-07-09T12:40:31;10.27;;;3.10;;
27491;SDS011;14927;51.210;6.838;2023-07-09T12:43:22;4.40;;;3.00;;
27491;SDS011;14927;51.210;6.838;2023-07-09T12:46:10;5.07;;;3.05;;
27491;SDS011;14927;51.210;6.838;2023-07-09T12:48:55;4.15;;;3.22;;
27491;SDS011;14927;51.210;6.838;2023-07-09T12:51:40;4.15;;;2.88;;
27491;SDS011;14927;51.210;6.838;2023-07-09T12:54:25;4.57;;;3.13;;
27491;SDS011;14927;51.210;6.838;2023-07-09T12:57:13;5.50;;;3.20;;
27491;SDS011;14927;51.210;6.838;2023-07-09T13:00:02;6.90;;;3.47;;
27491;SDS011;14927;51.210;6.838;2023-07-09T13:03:01;4.85;;;3.15;;
27491;SDS011;14927;51.210;6.838;2023-07-09T13:08:48;7.20;;;3.15;;
27491;SDS011;14927;51.210;6.838;2023-07-09T13:11:42;5.07;;;2.92;;
27491;SDS011;14927;51.210;6.838;2023-07-09T13:14:29;3.70;;;3.40;;
27491;SDS011;14927;51.210;6.838;2023-07-09T13:17:15;4.40;;;2.67;;
27491;SDS011;14927;51.210;6.838;2023-07-09T13:20:00;5.53;;;3.30;;
27491;SDS011;14927;51.210;6.838;2023-07-09T13:22:45;7.05;;;3.50;;
27491;SDS011;14927;51.210;6.838;2023-07-09T13:25:29;5.20;;;3.33;;
27491;SDS011;14927;51.210;6.838;2023-07-09T13:28:15;5.10;;;3.30;;
27491;SDS011;14927;51.210;6.838;2023-07-09T13:31:08;5.80;;;3.13;;
27491;SDS011;14927;51.210;6.838;2023-07-09T13:33:58;9.50;;;3.47;;
27491;SDS011;14927;51.210;6.838;2023-07-09T13:36:43;4.13;;;3.08;;
27491;SDS011;14927;51.210;6.838;2023-07-09T13:39:28;3.28;;;2.90;;
27491;SDS011;14927;51.210;6.838;2023-07-09T13:42:13;5.65;;;3.45;;
27491;SDS011;14927;51.210;6.838;2023-07-09T13:45:00;7.03;;;3.90;;
27491;SDS011;14927;51.210;6.838;2023-07-09T13:47:45;6.63;;;3.60;;
27491;SDS011;14927;51.210;6.838;2023-07-09T13:50:30;7.70;;;3.55;;
27491;SDS011;14927;51.210;6.838;2023-07-09T13:53:16;4.47;;;3.60;;
27491;SDS011;14927;51.210;6.838;2023-07-09T13:56:06;5.70;;;3.42;;
27491;SDS011;14927;51.210;6.838;2023-07-09T13:58:51;5.18;;;3.45;;
27491;SDS011;14927;51.210;6.838;2023-07-09T14:01:35;8.00;;;4.13;;
27491;SDS011;14927;51.210;6.838;2023-07-09T14:04:20;9.32;;;3.80;;
27491;SDS011;14927;51.210;6.838;2023-07-09T14:07:07;10.90;;;3.42;;
27491;SDS011;14927;51.210;6.838;2023-07-09T14:10:13;12.57;;;3.58;;
27491;SDS011;14927;51.210;6.838;2023-07-09T14:13:01;7.65;;;3.67;;
27491;SDS011;14927;51.210;6.838;2023-07-09T14:15:49;5.32;;;3.38;;
27491;SDS011;14927;51.210;6.838;2023-07-09T14:18:33;5.90;;;3.10;;
27491;SDS011;14927;51.210;6.838;2023-07-09T14:21:19;8.18;;;3.63;;
27491;SDS011;14927;51.210;6.838;2023-07-09T14:24:26;8.77;;;2.90;;
27491;SDS011;14927;51.210;6.838;2023-07-09T14:27:13;5.95;;;3.35;;
27491;SDS011;14927;51.210;6.838;2023-07-09T14:29:58;7.95;;;3.00;;
27491;SDS011;14927;51.210;6.838;2023-07-09T14:32:43;4.68;;;3.15;;
27491;SDS011;14927;51.210;6.838;2023-07-09T14:35:30;4.55;;;3.00;;
27491;SDS011;14927;51.210;6.838;2023-07-09T14:38:15;6.55;;;3.63;;
27491;SDS011;14927;51.210;6.838;2023-07-09T14:41:04;4.82;;;3.10;;
27491;SDS011;14927;51.210;6.838;2023-07-09T14:44:15;4.28;;;2.22;;
27491;SDS011;14927;51.210;6.838;2023-07-09T14:47:14;7.75;;;2.95;;
27491;SDS011;14927;51.210;6.838;2023-07-09T14:50:04;5.55;;;2.97;;
27491;SDS011;14927;51.210;6.838;2023-07-09T14:52:50;7.25;;;3.15;;
27491;SDS011;14927;51.210;6.838;2023-07-09T14:55:35;9.15;;;3.17;;
27491;SDS011;14927;51.210;6.838;2023-07-09T14:58:21;9.77;;;3.63;;
27491;SDS011;14927;51.210;6.838;2023-07-09T15:01:12;6.80;;;3.80;;
27491;SDS011;14927;51.210;6.838;2023-07-09T15:03:58;8.30;;;3.97;;
27491;SDS011;14927;51.210;6.838;2023-07-09T15:06:42;5.88;;;4.00;;
27491;SDS011;14927;51.210;6.838;2023-07-09T15:09:28;7.80;;;3.90;;
27491;SDS011;14927;51.210;6.838;2023-07-09T15:12:15;7.75;;;3.90;;
27491;SDS011;14927;51.210;6.838;2023-07-09T15:15:13;8.73;;;4.30;;
27491;SDS011;14927;51.210;6.838;2023-07-09T15:18:08;8.80;;;4.70;;
27491;SDS011;14927;51.210;6.838;2023-07-09T15:20:57;9.15;;;4.07;;
27491;SDS011;14927;51.210;6.838;2023-07-09T15:23:44;7.80;;;4.40;;
27491;SDS011;14927;51.210;6.838;2023-07-09T15:26:28;10.60;;;4.65;;
27491;SDS011;14927;51.210;6.838;2023-07-09T15:29:13;7.38;;;4.20;;
27491;SDS011;14927;51.210;6.838;2023-07-09T15:31:59;8.98;;;5.00;;
27491;SDS011;14927;51.210;6.838;2023-07-09T15:34:44;8.82;;;4.70;;
27491;SDS011;14927;51.210;6.838;2023-07-09T15:37:29;7.95;;;4.53;;
27491;SDS011;14927;51.210;6.838;2023-07-09T15:40:20;13.70;;;4.88;;
27491;SDS011;14927;51.210;6.838;2023-07-09T15:43:08;8.55;;;4.60;;
27491;SDS011;14927;51.210;6.838;2023-07-09T15:45:54;9.50;;;5.00;;
27491;SDS011;14927;51.210;6.838;2023-07-09T15:48:41;9.65;;;4.90;;
27491;SDS011;14927;51.210;6.838;2023-07-09T15:51:28;7.25;;;4.90;;
27491;SDS011;14927;51.210;6.838;2023-07-09T15:57:00;8.10;;;4.30;;
27491;SDS011;14927;51.210;6.838;2023-07-09T15:59:45;8.80;;;5.22;;
27491;SDS011;14927;51.210;6.838;2023-07-09T16:02:29;5.53;;;4.28;;
27491;SDS011;14927;51.210;6.838;2023-07-09T16:05:19;8.05;;;4.32;;
27491;SDS011;14927;51.210;6.838;2023-07-09T16:08:12;7.47;;;4.53;;
27491;SDS011;14927;51.210;6.838;2023-07-09T16:10:56;9.60;;;4.38;;
27491;SDS011;14927;51.210;6.838;2023-07-09T16:13:41;7.45;;;4.57;;
27491;SDS011;14927;51.210;6.838;2023-07-09T16:16:26;8.77;;;4.57;;
27491;SDS011;14927;51.210;6.838;2023-07-09T16:19:10;6.45;;;4.63;;
27491;SDS011;14927;51.210;6.838;2023-07-09T16:22:00;7.57;;;3.63;;
27491;SDS011;14927;51.210;6.838;2023-07-09T16:24:48;7.57;;;4.00;;
27491;SDS011;14927;51.210;6.838;2023-07-09T16:27:33;4.13;;;3.53;;
27491;SDS011;14927;51.210;6.838;2023-07-09T16:30:19;5.10;;;3.38;;
27491;SDS011;14927;51.210;6.838;2023-07-09T16:33:08;6.15;;;3.80;;
27491;SDS011;14927;51.210;6.838;2023-07-09T16:35:52;8.57;;;4.25;;
27491;SDS011;14927;51.210;6.838;2023-07-09T16:38:37;6.03;;;3.42;;
27491;SDS011;14927;51.210;6.838;2023-07-09T16:41:22;4.72;;;3.55;;
27491;SDS011;14927;51.210;6.838;2023-07-09T16:44:09;5.28;;;3.70;;
27491;SDS011;14927;51.210;6.838;2023-07-09T16:46:54;6.03;;;3.15;;
27491;SDS011;14927;51.210;6.838;2023-07-09T16:49:40;8.38;;;3.25;;
27491;SDS011;14927;51.210;6.838;2023-07-09T16:52:27;5.95;;;3.47;;
27491;SDS011;14927;51.210;6.838;2023-07-09T16:55:16;6.22;;;4.18;;
27491;SDS011;14927;51.210;6.838;2023-07-09T16:58:14;5.35;;;3.40;;
27491;SDS011;14927;51.210;6.838;2023-07-09T17:01:14;5.03;;;3.72;;
27491;SDS011;14927;51.210;6.838;2023-07-09T17:03:59;6.28;;;3.28;;
27491;SDS011;14927;51.210;6.838;2023-07-09T17:06:43;7.10;;;4.03;;
27491;SDS011;14927;51.210;6.838;2023-07-09T17:09:28;5.65;;;3.45;;
27491;SDS011;14927;51.210;6.838;2023-07-09T17:12:13;5.30;;;3.70;;
27491;SDS011;14927;51.210;6.838;2023-07-09T17:15:00;7.70;;;3.60;;
27491;SDS011;14927;51.210;6.838;2023-07-09T17:18:12;6.85;;;3.58;;
27491;SDS011;14927;51.210;6.838;2023-07-09T17:21:04;6.07;;;3.72;;
27491;SDS011;14927;51.210;6.838;2023-07-09T17:23:50;6.40;;;3.75;;
27491;SDS011;14927;51.210;6.838;2023-07-09T17:26:35;7.07;;;3.92;;
27491;SDS011;14927;51.210;6.838;2023-07-09T17:29:19;5.93;;;3.88;;
27491;SDS011;14927;51.210;6.838;2023-07-09T17:32:04;5.15;;;3.70;;
27491;SDS011;14927;51.210;6.838;2023-07-09T17:34:50;10.18;;;3.65;;
27491;SDS011;14927;51.210;6.838;2023-07-09T17:37:35;4.43;;;3.55;;
27491;SDS011;14927;51.210;6.838;2023-07-09T17:40:26;7.45;;;3.63;;
27491;SDS011;14927;51.210;6.838;2023-07-09T17:43:17;6.18;;;3.80;;
27491;SDS011;14927;51.210;6.838;2023-07-09T17:46:04;7.80;;;4.45;;
27491;SDS011;14927;51.210;6.838;2023-07-09T17:48:53;7.15;;;3.38;;